sensor_id;sensor_type;location;lat;lon;timestamp;P1;durP1;ratioP1;P2;durP2;ratioP2
59302;SDS011;45074;52.764;6.896;2022-09-16T00:01:38;5.57;;;1.30;;
59302;SDS011;45074;52.764;6.896;2022-09-16T00:04:04;3.53;;;1.00;;
59302;SDS011;45074;52.764;6.896;2022-09-16T00:06:31;4.53;;;1.25;;
59302;SDS011;45074;52.764;6.896;2022-09-16T00:08:58;6.55;;;1.40;;
59302;SDS011;45074;52.764;6.896;2022-09-16T00:11:27;5.20;;;1.30;;
59302;SDS011;45074;52.764;6.896;2022-09-16T00:13:53;6.35;;;1.38;;
59302;SDS011;45074;52.764;6.896;2022-09-16T00:16:21;5.85;;;1.40;;
59302;SDS011;45074;52.764;6.896;2022-09-16T00:18:52;4.43;;;1.30;;
59302;SDS011;45074;52.764;6.896;2022-09-16T00:21:22;5.82;;;1.40;;
59302;SDS011;45074;52.764;6.896;2022-09-16T00:23:48;5.55;;;1.30;;
59302;SDS011;45074;52.764;6.896;2022-09-16T00:26:14;4.65;;;1.30;;
59302;SDS011;45074;52.764;6.896;2022-09-16T00:28:40;6.32;;;1.05;;
59302;SDS011;45074;52.764;6.896;2022-09-16T00:31:06;5.18;;;1.33;;
59302;SDS011;45074;52.764;6.896;2022-09-16T00:33:32;4.82;;;1.50;;
59302;SDS011;45074;52.764;6.896;2022-09-16T00:36:09;4.40;;;1.10;;
59302;SDS011;45074;52.764;6.896;2022-09-16T00:38:39;6.13;;;1.20;;
59302;SDS011;45074;52.764;6.896;2022-09-16T00:41:06;4.93;;;1.17;;
59302;SDS011;45074;52.764;6.896;2022-09-16T00:43:45;5.03;;;1.40;;
59302;SDS011;45074;52.764;6.896;2022-09-16T00:46:23;4.13;;;1.30;;
59302;SDS011;45074;52.764;6.896;2022-09-16T00:49:05;4.25;;;1.10;;
59302;SDS011;45074;52.764;6.896;2022-09-16T00:51:48;3.65;;;1.02;;
59302;SDS011;45074;52.764;6.896;2022-09-16T00:54:17;5.90;;;1.30;;
59302;SDS011;45074;52.764;6.896;2022-09-16T00:56:44;3.88;;;1.23;;
59302;SDS011;45074;52.764;6.896;2022-09-16T00:59:14;3.60;;;1.00;;
59302;SDS011;45074;52.764;6.896;2022-09-16T01:01:43;5.07;;;1.20;;
59302;SDS011;45074;52.764;6.896;2022-09-16T01:04:15;3.17;;;1.17;;
59302;SDS011;45074;52.764;6.896;2022-09-16T01:06:45;5.35;;;1.50;;
59302;SDS011;45074;52.764;6.896;2022-09-16T01:09:11;4.65;;;1.40;;
59302;SDS011;45074;52.764;6.896;2022-09-16T01:11:37;4.72;;;1.60;;
59302;SDS011;45074;52.764;6.896;2022-09-16T01:14:03;5.60;;;1.15;;
59302;SDS011;45074;52.764;6.896;2022-09-16T01:17:00;5.00;;;1.27;;
59302;SDS011;45074;52.764;6.896;2022-09-16T01:25:10;5.45;;;1.30;;
59302;SDS011;45074;52.764;6.896;2022-09-16T01:30:45;5.10;;;1.10;;
59302;SDS011;45074;52.764;6.896;2022-09-16T01:35:53;5.35;;;1.25;;
59302;SDS011;45074;52.764;6.896;2022-09-16T01:41:43;4.20;;;1.30;;
59302;SDS011;45074;52.764;6.896;2022-09-16T01:44:14;5.05;;;1.30;;
59302;SDS011;45074;52.764;6.896;2022-09-16T01:55:20;6.38;;;1.63;;
59302;SDS011;45074;52.764;6.896;2022-09-16T01:57:54;4.85;;;1.15;;
59302;SDS011;45074;52.764;6.896;2022-09-16T02:00:34;4.00;;;1.10;;
59302;SDS011;45074;52.764;6.896;2022-09-16T02:06:10;6.05;;;1.27;;
59302;SDS011;45074;52.764;6.896;2022-09-16T02:08:45;5.57;;;1.23;;
59302;SDS011;45074;52.764;6.896;2022-09-16T02:11:18;5.15;;;1.30;;
59302;SDS011;45074;52.764;6.896;2022-09-16T02:13:46;5.05;;;1.17;;
59302;SDS011;45074;52.764;6.896;2022-09-16T02:16:28;3.45;;;1.15;;
59302;SDS011;45074;52.764;6.896;2022-09-16T02:19:01;4.63;;;1.40;;
59302;SDS011;45074;52.764;6.896;2022-09-16T02:21:34;3.13;;;1.17;;
59302;SDS011;45074;52.764;6.896;2022-09-16T02:24:03;5.40;;;1.35;;
59302;SDS011;45074;52.764;6.896;2022-09-16T02:26:34;4.88;;;1.15;;
59302;SDS011;45074;52.764;6.896;2022-09-16T02:29:06;4.82;;;1.10;;
59302;SDS011;45074;52.764;6.896;2022-09-16T02:31:39;4.88;;;1.15;;
59302;SDS011;45074;52.764;6.896;2022-09-16T02:34:10;6.15;;;1.20;;
59302;SDS011;45074;52.764;6.896;2022-09-16T02:36:45;4.15;;;1.40;;
59302;SDS011;45074;52.764;6.896;2022-09-16T02:39:17;3.70;;;1.02;;
59302;SDS011;45074;52.764;6.896;2022-09-16T02:41:46;7.57;;;1.20;;
59302;SDS011;45074;52.764;6.896;2022-09-16T02:44:13;4.07;;;1.10;;
59302;SDS011;45074;52.764;6.896;2022-09-16T02:54:51;5.15;;;1.20;;
59302;SDS011;45074;52.764;6.896;2022-09-16T02:57:35;3.95;;;1.25;;
59302;SDS011;45074;52.764;6.896;2022-09-16T03:00:03;4.82;;;1.10;;
59302;SDS011;45074;52.764;6.896;2022-09-16T03:02:33;3.83;;;1.08;;
59302;SDS011;45074;52.764;6.896;2022-09-16T03:04:59;3.92;;;1.10;;
59302;SDS011;45074;52.764;6.896;2022-09-16T03:07:25;5.63;;;1.38;;
59302;SDS011;45074;52.764;6.896;2022-09-16T03:09:51;5.00;;;1.20;;
59302;SDS011;45074;52.764;6.896;2022-09-16T03:26:01;3.60;;;1.10;;
59302;SDS011;45074;52.764;6.896;2022-09-16T03:31:28;4.10;;;1.27;;
59302;SDS011;45074;52.764;6.896;2022-09-16T03:34:12;5.57;;;1.33;;
59302;SDS011;45074;52.764;6.896;2022-09-16T03:37:02;4.85;;;1.42;;
59302;SDS011;45074;52.764;6.896;2022-09-16T03:39:31;4.78;;;1.20;;
59302;SDS011;45074;52.764;6.896;2022-09-16T03:42:01;3.53;;;1.13;;
59302;SDS011;45074;52.764;6.896;2022-09-16T03:44:36;3.90;;;1.15;;
59302;SDS011;45074;52.764;6.896;2022-09-16T03:47:04;7.38;;;1.45;;
59302;SDS011;45074;52.764;6.896;2022-09-16T03:49:31;5.50;;;1.20;;
59302;SDS011;45074;52.764;6.896;2022-09-16T03:51:57;5.88;;;1.42;;
59302;SDS011;45074;52.764;6.896;2022-09-16T03:54:23;5.05;;;1.40;;
59302;SDS011;45074;52.764;6.896;2022-09-16T03:56:50;4.00;;;1.02;;
59302;SDS011;45074;52.764;6.896;2022-09-16T03:59:16;2.67;;;1.20;;
59302;SDS011;45074;52.764;6.896;2022-09-16T04:01:42;4.45;;;1.30;;
59302;SDS011;45074;52.764;6.896;2022-09-16T04:04:09;5.05;;;1.38;;
59302;SDS011;45074;52.764;6.896;2022-09-16T04:06:36;5.80;;;1.38;;
59302;SDS011;45074;52.764;6.896;2022-09-16T04:09:03;4.43;;;1.30;;
59302;SDS011;45074;52.764;6.896;2022-09-16T04:11:30;6.20;;;1.30;;
59302;SDS011;45074;52.764;6.896;2022-09-16T04:13:56;7.35;;;1.55;;
59302;SDS011;45074;52.764;6.896;2022-09-16T04:16:23;4.88;;;1.10;;
59302;SDS011;45074;52.764;6.896;2022-09-16T04:18:49;3.28;;;1.00;;
59302;SDS011;45074;52.764;6.896;2022-09-16T04:21:16;6.40;;;1.30;;
59302;SDS011;45074;52.764;6.896;2022-09-16T04:23:42;5.78;;;1.35;;
59302;SDS011;45074;52.764;6.896;2022-09-16T04:26:08;5.13;;;1.33;;
59302;SDS011;45074;52.764;6.896;2022-09-16T04:28:35;4.20;;;1.20;;
59302;SDS011;45074;52.764;6.896;2022-09-16T04:31:02;4.72;;;1.10;;
59302;SDS011;45074;52.764;6.896;2022-09-16T04:33:29;5.20;;;1.25;;
59302;SDS011;45074;52.764;6.896;2022-09-16T04:36:05;6.18;;;1.10;;
59302;SDS011;45074;52.764;6.896;2022-09-16T04:38:42;4.82;;;1.02;;
59302;SDS011;45074;52.764;6.896;2022-09-16T04:41:14;6.00;;;1.10;;
59302;SDS011;45074;52.764;6.896;2022-09-16T04:43:42;4.45;;;1.10;;
59302;SDS011;45074;52.764;6.896;2022-09-16T04:46:08;4.95;;;1.38;;
59302;SDS011;45074;52.764;6.896;2022-09-16T04:48:34;5.90;;;1.25;;
59302;SDS011;45074;52.764;6.896;2022-09-16T04:51:10;3.67;;;1.42;;
59302;SDS011;45074;52.764;6.896;2022-09-16T04:53:37;6.53;;;1.20;;
59302;SDS011;45074;52.764;6.896;2022-09-16T04:56:08;5.00;;;1.27;;
59302;SDS011;45074;52.764;6.896;2022-09-16T04:58:39;5.80;;;1.38;;
59302;SDS011;45074;52.764;6.896;2022-09-16T05:01:06;5.40;;;1.27;;
59302;SDS011;45074;52.764;6.896;2022-09-16T05:03:37;5.25;;;1.27;;
59302;SDS011;45074;52.764;6.896;2022-09-16T05:06:05;6.47;;;1.63;;
59302;SDS011;45074;52.764;6.896;2022-09-16T05:08:38;4.15;;;1.15;;
59302;SDS011;45074;52.764;6.896;2022-09-16T05:11:06;8.45;;;1.70;;
59302;SDS011;45074;52.764;6.896;2022-09-16T05:13:36;5.85;;;1.33;;
59302;SDS011;45074;52.764;6.896;2022-09-16T05:16:07;6.65;;;1.73;;
59302;SDS011;45074;52.764;6.896;2022-09-16T05:18:37;5.45;;;1.33;;
59302;SDS011;45074;52.764;6.896;2022-09-16T05:21:05;4.57;;;1.33;;
59302;SDS011;45074;52.764;6.896;2022-09-16T05:23:32;5.38;;;1.40;;
59302;SDS011;45074;52.764;6.896;2022-09-16T05:26:09;4.60;;;1.48;;
59302;SDS011;45074;52.764;6.896;2022-09-16T05:28:36;4.30;;;1.60;;
59302;SDS011;45074;52.764;6.896;2022-09-16T05:33:36;6.93;;;1.50;;
59302;SDS011;45074;52.764;6.896;2022-09-16T05:36:03;4.88;;;1.50;;
59302;SDS011;45074;52.764;6.896;2022-09-16T05:38:34;6.82;;;1.85;;
59302;SDS011;45074;52.764;6.896;2022-09-16T05:41:00;4.50;;;1.70;;
59302;SDS011;45074;52.764;6.896;2022-09-16T05:43:27;6.93;;;2.00;;
59302;SDS011;45074;52.764;6.896;2022-09-16T05:45:53;5.93;;;1.73;;
59302;SDS011;45074;52.764;6.896;2022-09-16T05:48:19;6.07;;;1.90;;
59302;SDS011;45074;52.764;6.896;2022-09-16T05:50:53;5.38;;;1.85;;
59302;SDS011;45074;52.764;6.896;2022-09-16T05:53:23;4.78;;;1.70;;
59302;SDS011;45074;52.764;6.896;2022-09-16T05:58:35;7.45;;;1.67;;
59302;SDS011;45074;52.764;6.896;2022-09-16T06:01:05;7.95;;;1.83;;
59302;SDS011;45074;52.764;6.896;2022-09-16T06:03:37;6.43;;;1.77;;
59302;SDS011;45074;52.764;6.896;2022-09-16T06:09:05;5.63;;;1.45;;
59302;SDS011;45074;52.764;6.896;2022-09-16T06:11:38;7.45;;;1.60;;
59302;SDS011;45074;52.764;6.896;2022-09-16T06:14:06;7.70;;;1.70;;
59302;SDS011;45074;52.764;6.896;2022-09-16T06:16:32;7.25;;;1.60;;
59302;SDS011;45074;52.764;6.896;2022-09-16T06:18:59;5.05;;;1.48;;
59302;SDS011;45074;52.764;6.896;2022-09-16T06:21:26;6.07;;;1.55;;
59302;SDS011;45074;52.764;6.896;2022-09-16T06:23:52;5.20;;;1.50;;
59302;SDS011;45074;52.764;6.896;2022-09-16T06:26:20;5.90;;;1.42;;
59302;SDS011;45074;52.764;6.896;2022-09-16T06:28:47;5.45;;;1.80;;
59302;SDS011;45074;52.764;6.896;2022-09-16T06:31:17;6.15;;;1.73;;
59302;SDS011;45074;52.764;6.896;2022-09-16T06:33:45;6.82;;;1.50;;
59302;SDS011;45074;52.764;6.896;2022-09-16T06:36:12;10.10;;;1.80;;
59302;SDS011;45074;52.764;6.896;2022-09-16T06:38:41;7.63;;;1.42;;
59302;SDS011;45074;52.764;6.896;2022-09-16T06:41:08;6.57;;;1.33;;
59302;SDS011;45074;52.764;6.896;2022-09-16T06:43:35;10.02;;;1.80;;
59302;SDS011;45074;52.764;6.896;2022-09-16T06:46:02;6.47;;;1.50;;
59302;SDS011;45074;52.764;6.896;2022-09-16T06:48:33;9.32;;;1.58;;
59302;SDS011;45074;52.764;6.896;2022-09-16T06:50:59;5.35;;;1.50;;
59302;SDS011;45074;52.764;6.896;2022-09-16T06:53:27;8.77;;;1.40;;
59302;SDS011;45074;52.764;6.896;2022-09-16T06:55:53;6.50;;;1.40;;
59302;SDS011;45074;52.764;6.896;2022-09-16T06:58:20;7.88;;;1.58;;
59302;SDS011;45074;52.764;6.896;2022-09-16T07:00:46;7.45;;;1.38;;
59302;SDS011;45074;52.764;6.896;2022-09-16T07:03:12;6.93;;;1.50;;
59302;SDS011;45074;52.764;6.896;2022-09-16T07:05:38;8.10;;;1.45;;
59302;SDS011;45074;52.764;6.896;2022-09-16T07:08:04;7.70;;;1.42;;
59302;SDS011;45074;52.764;6.896;2022-09-16T07:10:30;6.75;;;1.33;;
59302;SDS011;45074;52.764;6.896;2022-09-16T07:12:56;6.03;;;1.33;;
59302;SDS011;45074;52.764;6.896;2022-09-16T07:15:22;8.57;;;1.40;;
59302;SDS011;45074;52.764;6.896;2022-09-16T07:17:52;7.07;;;1.60;;
59302;SDS011;45074;52.764;6.896;2022-09-16T07:20:21;8.68;;;1.35;;
59302;SDS011;45074;52.764;6.896;2022-09-16T07:22:47;10.40;;;1.50;;
59302;SDS011;45074;52.764;6.896;2022-09-16T07:25:15;7.63;;;1.30;;
59302;SDS011;45074;52.764;6.896;2022-09-16T07:27:41;9.07;;;1.63;;
59302;SDS011;45074;52.764;6.896;2022-09-16T07:30:07;9.75;;;2.25;;
59302;SDS011;45074;52.764;6.896;2022-09-16T07:32:33;6.65;;;1.35;;
59302;SDS011;45074;52.764;6.896;2022-09-16T07:34:59;5.85;;;1.25;;
59302;SDS011;45074;52.764;6.896;2022-09-16T07:37:25;7.80;;;1.23;;
59302;SDS011;45074;52.764;6.896;2022-09-16T07:39:51;6.97;;;1.50;;
59302;SDS011;45074;52.764;6.896;2022-09-16T07:42:18;8.95;;;1.35;;
59302;SDS011;45074;52.764;6.896;2022-09-16T07:44:44;6.72;;;1.42;;
59302;SDS011;45074;52.764;6.896;2022-09-16T07:47:10;8.88;;;1.58;;
59302;SDS011;45074;52.764;6.896;2022-09-16T07:49:36;10.20;;;1.75;;
59302;SDS011;45074;52.764;6.896;2022-09-16T07:52:02;7.07;;;1.55;;
59302;SDS011;45074;52.764;6.896;2022-09-16T07:54:28;8.48;;;1.45;;
59302;SDS011;45074;52.764;6.896;2022-09-16T07:56:54;9.05;;;1.23;;
59302;SDS011;45074;52.764;6.896;2022-09-16T07:59:20;8.23;;;1.52;;
59302;SDS011;45074;52.764;6.896;2022-09-16T08:01:47;10.05;;;1.35;;
59302;SDS011;45074;52.764;6.896;2022-09-16T08:04:13;6.95;;;1.17;;
59302;SDS011;45074;52.764;6.896;2022-09-16T08:06:39;8.23;;;1.38;;
59302;SDS011;45074;52.764;6.896;2022-09-16T08:09:05;9.30;;;1.77;;
59302;SDS011;45074;52.764;6.896;2022-09-16T08:11:32;9.38;;;1.40;;
59302;SDS011;45074;52.764;6.896;2022-09-16T08:13:58;8.40;;;1.40;;
59302;SDS011;45074;52.764;6.896;2022-09-16T08:16:24;6.50;;;1.33;;
59302;SDS011;45074;52.764;6.896;2022-09-16T08:18:51;7.63;;;1.60;;
59302;SDS011;45074;52.764;6.896;2022-09-16T08:21:21;7.97;;;1.40;;
59302;SDS011;45074;52.764;6.896;2022-09-16T08:23:48;8.82;;;1.52;;
59302;SDS011;45074;52.764;6.896;2022-09-16T08:26:14;6.82;;;1.20;;
59302;SDS011;45074;52.764;6.896;2022-09-16T08:28:42;8.98;;;1.10;;
59302;SDS011;45074;52.764;6.896;2022-09-16T08:31:09;8.48;;;1.20;;
59302;SDS011;45074;52.764;6.896;2022-09-16T08:33:37;10.77;;;1.35;;
59302;SDS011;45074;52.764;6.896;2022-09-16T08:38:30;10.10;;;1.38;;
59302;SDS011;45074;52.764;6.896;2022-09-16T08:41:00;5.90;;;1.20;;
59302;SDS011;45074;52.764;6.896;2022-09-16T08:43:48;7.78;;;1.55;;
59302;SDS011;45074;52.764;6.896;2022-09-16T08:49:28;9.80;;;1.30;;
59302;SDS011;45074;52.764;6.896;2022-09-16T08:51:58;9.07;;;1.40;;
59302;SDS011;45074;52.764;6.896;2022-09-16T08:54:31;11.57;;;1.40;;
59302;SDS011;45074;52.764;6.896;2022-09-16T08:57:10;11.32;;;1.58;;
59302;SDS011;45074;52.764;6.896;2022-09-16T08:59:42;7.35;;;1.40;;
59302;SDS011;45074;52.764;6.896;2022-09-16T09:03:13;9.85;;;1.48;;
59302;SDS011;45074;52.764;6.896;2022-09-16T09:05:14;10.35;;;1.70;;
59302;SDS011;45074;52.764;6.896;2022-09-16T09:13:07;8.93;;;1.48;;
59302;SDS011;45074;52.764;6.896;2022-09-16T09:15:40;10.63;;;1.50;;
59302;SDS011;45074;52.764;6.896;2022-09-16T09:37:21;8.68;;;1.80;;
59302;SDS011;45074;52.764;6.896;2022-09-16T09:42:42;9.10;;;1.48;;
59302;SDS011;45074;52.764;6.896;2022-09-16T09:45:19;7.55;;;1.48;;
59302;SDS011;45074;52.764;6.896;2022-09-16T09:50:45;8.23;;;1.30;;
59302;SDS011;45074;52.764;6.896;2022-09-16T09:58:36;7.85;;;1.45;;
59302;SDS011;45074;52.764;6.896;2022-09-16T10:01:08;7.93;;;1.25;;
59302;SDS011;45074;52.764;6.896;2022-09-16T10:03:35;8.43;;;1.38;;
59302;SDS011;45074;52.764;6.896;2022-09-16T10:06:03;7.65;;;1.40;;
59302;SDS011;45074;52.764;6.896;2022-09-16T10:08:32;7.57;;;1.10;;
59302;SDS011;45074;52.764;6.896;2022-09-16T10:11:20;7.45;;;1.42;;
59302;SDS011;45074;52.764;6.896;2022-09-16T10:13:52;10.85;;;1.75;;
59302;SDS011;45074;52.764;6.896;2022-09-16T10:16:20;8.23;;;1.45;;
59302;SDS011;45074;52.764;6.896;2022-09-16T10:21:42;9.75;;;1.80;;
59302;SDS011;45074;52.764;6.896;2022-09-16T10:26:58;6.72;;;1.10;;
59302;SDS011;45074;52.764;6.896;2022-09-16T10:29:25;7.43;;;1.23;;
59302;SDS011;45074;52.764;6.896;2022-09-16T10:31:51;9.02;;;1.40;;
59302;SDS011;45074;52.764;6.896;2022-09-16T10:39:36;7.50;;;1.10;;
59302;SDS011;45074;52.764;6.896;2022-09-16T10:42:13;7.47;;;1.10;;
59302;SDS011;45074;52.764;6.896;2022-09-16T10:44:46;7.90;;;1.52;;
59302;SDS011;45074;52.764;6.896;2022-09-16T10:47:17;6.30;;;1.05;;
59302;SDS011;45074;52.764;6.896;2022-09-16T10:54:42;6.07;;;1.20;;
59302;SDS011;45074;52.764;6.896;2022-09-16T11:00:11;6.15;;;1.20;;
59302;SDS011;45074;52.764;6.896;2022-09-16T11:15:05;5.25;;;0.93;;
59302;SDS011;45074;52.764;6.896;2022-09-16T11:22:59;7.88;;;1.25;;
59302;SDS011;45074;52.764;6.896;2022-09-16T11:26:09;6.97;;;1.13;;
59302;SDS011;45074;52.764;6.896;2022-09-16T11:28:39;7.40;;;1.45;;
59302;SDS011;45074;52.764;6.896;2022-09-16T11:39:27;8.38;;;1.20;;
59302;SDS011;45074;52.764;6.896;2022-09-16T11:57:54;5.82;;;1.02;;
59302;SDS011;45074;52.764;6.896;2022-09-16T12:00:23;6.75;;;1.08;;
59302;SDS011;45074;52.764;6.896;2022-09-16T12:11:08;7.75;;;1.13;;
59302;SDS011;45074;52.764;6.896;2022-09-16T12:13:40;5.15;;;0.93;;
59302;SDS011;45074;52.764;6.896;2022-09-16T12:16:21;8.27;;;1.40;;
59302;SDS011;45074;52.764;6.896;2022-09-16T12:19:02;5.63;;;1.02;;
59302;SDS011;45074;52.764;6.896;2022-09-16T12:21:43;3.60;;;0.80;;
59302;SDS011;45074;52.764;6.896;2022-09-16T12:24:35;4.72;;;0.80;;
59302;SDS011;45074;52.764;6.896;2022-09-16T12:27:32;5.70;;;0.90;;
59302;SDS011;45074;52.764;6.896;2022-09-16T12:30:04;6.57;;;0.90;;
59302;SDS011;45074;52.764;6.896;2022-09-16T12:32:49;5.38;;;0.95;;
59302;SDS011;45074;52.764;6.896;2022-09-16T12:35:26;6.72;;;1.05;;
59302;SDS011;45074;52.764;6.896;2022-09-16T12:37:57;6.07;;;1.30;;
59302;SDS011;45074;52.764;6.896;2022-09-16T12:40:26;5.30;;;0.90;;
59302;SDS011;45074;52.764;6.896;2022-09-16T12:57:26;6.72;;;1.15;;
59302;SDS011;45074;52.764;6.896;2022-09-16T13:00:08;5.40;;;0.80;;
59302;SDS011;45074;52.764;6.896;2022-09-16T13:02:56;6.68;;;1.02;;
59302;SDS011;45074;52.764;6.896;2022-09-16T13:05:26;6.57;;;1.10;;
59302;SDS011;45074;52.764;6.896;2022-09-16T13:08:04;5.28;;;1.00;;
59302;SDS011;45074;52.764;6.896;2022-09-16T13:10:42;4.70;;;0.90;;
59302;SDS011;45074;52.764;6.896;2022-09-16T13:13:14;3.50;;;0.90;;
59302;SDS011;45074;52.764;6.896;2022-09-16T13:15:55;5.20;;;1.05;;
59302;SDS011;45074;52.764;6.896;2022-09-16T13:18:23;5.97;;;0.98;;
59302;SDS011;45074;52.764;6.896;2022-09-16T13:21:04;7.10;;;1.00;;
59302;SDS011;45074;52.764;6.896;2022-09-16T13:23:41;5.22;;;1.10;;
59302;SDS011;45074;52.764;6.896;2022-09-16T13:26:10;6.22;;;1.15;;
59302;SDS011;45074;52.764;6.896;2022-09-16T13:28:42;10.95;;;1.60;;
59302;SDS011;45074;52.764;6.896;2022-09-16T13:33:41;6.57;;;1.10;;
59302;SDS011;45074;52.764;6.896;2022-09-16T13:41:27;6.68;;;1.35;;
59302;SDS011;45074;52.764;6.896;2022-09-16T13:43:54;9.35;;;1.50;;
59302;SDS011;45074;52.764;6.896;2022-09-16T13:46:36;11.32;;;1.65;;
59302;SDS011;45074;52.764;6.896;2022-09-16T13:49:04;8.00;;;1.48;;
59302;SDS011;45074;52.764;6.896;2022-09-16T13:51:42;9.68;;;1.58;;
59302;SDS011;45074;52.764;6.896;2022-09-16T13:54:29;7.43;;;1.55;;
59302;SDS011;45074;52.764;6.896;2022-09-16T13:57:13;7.28;;;1.33;;
59302;SDS011;45074;52.764;6.896;2022-09-16T14:10:39;11.32;;;1.70;;
59302;SDS011;45074;52.764;6.896;2022-09-16T14:13:15;8.85;;;1.92;;
59302;SDS011;45074;52.764;6.896;2022-09-16T14:15:44;9.15;;;1.65;;
59302;SDS011;45074;52.764;6.896;2022-09-16T14:18:14;10.98;;;1.85;;
59302;SDS011;45074;52.764;6.896;2022-09-16T14:23:26;9.02;;;1.70;;
59302;SDS011;45074;52.764;6.896;2022-09-16T14:25:53;10.77;;;1.80;;
59302;SDS011;45074;52.764;6.896;2022-09-16T14:28:24;10.48;;;1.80;;
59302;SDS011;45074;52.764;6.896;2022-09-16T14:30:55;12.90;;;1.80;;
59302;SDS011;45074;52.764;6.896;2022-09-16T14:33:33;13.77;;;1.95;;
59302;SDS011;45074;52.764;6.896;2022-09-16T14:36:18;9.52;;;1.67;;
59302;SDS011;45074;52.764;6.896;2022-09-16T14:38:59;8.70;;;1.40;;
59302;SDS011;45074;52.764;6.896;2022-09-16T14:41:49;8.35;;;1.45;;
59302;SDS011;45074;52.764;6.896;2022-09-16T14:44:20;7.20;;;1.20;;
59302;SDS011;45074;52.764;6.896;2022-09-16T14:47:02;6.22;;;1.30;;
59302;SDS011;45074;52.764;6.896;2022-09-16T14:49:34;9.18;;;1.40;;
59302;SDS011;45074;52.764;6.896;2022-09-16T14:52:01;7.05;;;1.73;;
59302;SDS011;45074;52.764;6.896;2022-09-16T14:54:28;7.40;;;1.40;;
59302;SDS011;45074;52.764;6.896;2022-09-16T14:56:56;7.93;;;1.38;;
59302;SDS011;45074;52.764;6.896;2022-09-16T14:59:27;11.00;;;1.52;;
59302;SDS011;45074;52.764;6.896;2022-09-16T15:01:56;9.45;;;1.98;;
59302;SDS011;45074;52.764;6.896;2022-09-16T15:06:54;10.48;;;1.63;;
59302;SDS011;45074;52.764;6.896;2022-09-16T15:10:17;10.13;;;1.52;;
59302;SDS011;45074;52.764;6.896;2022-09-16T15:12:22;9.00;;;1.88;;
59302;SDS011;45074;52.764;6.896;2022-09-16T15:14:52;10.18;;;1.90;;
59302;SDS011;45074;52.764;6.896;2022-09-16T15:17:19;8.88;;;1.65;;
59302;SDS011;45074;52.764;6.896;2022-09-16T15:19:53;11.50;;;1.60;;
59302;SDS011;45074;52.764;6.896;2022-09-16T15:22:23;10.57;;;1.80;;
59302;SDS011;45074;52.764;6.896;2022-09-16T15:24:51;11.07;;;1.80;;
59302;SDS011;45074;52.764;6.896;2022-09-16T15:27:24;13.43;;;1.88;;
59302;SDS011;45074;52.764;6.896;2022-09-16T15:29:56;8.77;;;1.98;;
59302;SDS011;45074;52.764;6.896;2022-09-16T15:32:24;11.20;;;1.85;;
59302;SDS011;45074;52.764;6.896;2022-09-16T15:35:27;12.10;;;1.95;;
59302;SDS011;45074;52.764;6.896;2022-09-16T15:37:47;11.23;;;2.40;;
59302;SDS011;45074;52.764;6.896;2022-09-16T15:45:38;9.80;;;1.90;;
59302;SDS011;45074;52.764;6.896;2022-09-16T15:48:05;9.27;;;1.60;;
59302;SDS011;45074;52.764;6.896;2022-09-16T15:53:32;8.20;;;1.70;;
59302;SDS011;45074;52.764;6.896;2022-09-16T16:03:36;8.82;;;1.50;;
59302;SDS011;45074;52.764;6.896;2022-09-16T16:06:14;6.30;;;0.95;;
59302;SDS011;45074;52.764;6.896;2022-09-16T16:08:48;7.97;;;1.30;;
59302;SDS011;45074;52.764;6.896;2022-09-16T16:11:18;7.82;;;1.30;;
59302;SDS011;45074;52.764;6.896;2022-09-16T16:13:45;7.82;;;1.17;;
59302;SDS011;45074;52.764;6.896;2022-09-16T16:16:13;4.45;;;0.98;;
59302;SDS011;45074;52.764;6.896;2022-09-16T16:18:40;6.32;;;1.10;;
59302;SDS011;45074;52.764;6.896;2022-09-16T16:21:08;6.95;;;1.17;;
59302;SDS011;45074;52.764;6.896;2022-09-16T16:23:36;8.02;;;1.45;;
59302;SDS011;45074;52.764;6.896;2022-09-16T16:26:03;4.05;;;0.85;;
59302;SDS011;45074;52.764;6.896;2022-09-16T16:28:30;8.75;;;1.20;;
59302;SDS011;45074;52.764;6.896;2022-09-16T16:31:15;5.65;;;1.10;;
59302;SDS011;45074;52.764;6.896;2022-09-16T16:33:43;4.15;;;0.90;;
59302;SDS011;45074;52.764;6.896;2022-09-16T16:36:10;2.97;;;0.80;;
59302;SDS011;45074;52.764;6.896;2022-09-16T16:38:37;4.15;;;0.60;;
59302;SDS011;45074;52.764;6.896;2022-09-16T16:41:04;4.97;;;0.98;;
59302;SDS011;45074;52.764;6.896;2022-09-16T16:43:31;6.05;;;0.90;;
59302;SDS011;45074;52.764;6.896;2022-09-16T16:45:57;4.80;;;0.80;;
59302;SDS011;45074;52.764;6.896;2022-09-16T16:48:25;4.93;;;1.00;;
59302;SDS011;45074;52.764;6.896;2022-09-16T16:51:00;4.55;;;1.17;;
59302;SDS011;45074;52.764;6.896;2022-09-16T16:53:30;5.30;;;1.00;;
59302;SDS011;45074;52.764;6.896;2022-09-16T16:56:03;5.25;;;1.30;;
59302;SDS011;45074;52.764;6.896;2022-09-16T16:58:31;4.65;;;1.00;;
59302;SDS011;45074;52.764;6.896;2022-09-16T17:01:10;7.50;;;1.25;;
59302;SDS011;45074;52.764;6.896;2022-09-16T17:03:39;4.15;;;0.90;;
59302;SDS011;45074;52.764;6.896;2022-09-16T17:06:05;6.20;;;1.50;;
59302;SDS011;45074;52.764;6.896;2022-09-16T17:08:32;6.55;;;1.13;;
59302;SDS011;45074;52.764;6.896;2022-09-16T17:13:41;5.40;;;1.10;;
59302;SDS011;45074;52.764;6.896;2022-09-16T17:16:08;6.65;;;1.27;;
59302;SDS011;45074;52.764;6.896;2022-09-16T17:18:35;6.82;;;1.25;;
59302;SDS011;45074;52.764;6.896;2022-09-16T17:21:03;7.45;;;1.38;;
59302;SDS011;45074;52.764;6.896;2022-09-16T17:23:53;7.55;;;1.27;;
59302;SDS011;45074;52.764;6.896;2022-09-16T17:26:19;6.15;;;1.10;;
59302;SDS011;45074;52.764;6.896;2022-09-16T17:28:46;11.48;;;1.50;;
59302;SDS011;45074;52.764;6.896;2022-09-16T17:31:23;8.77;;;1.60;;
59302;SDS011;45074;52.764;6.896;2022-09-16T17:33:54;7.72;;;1.42;;
59302;SDS011;45074;52.764;6.896;2022-09-16T17:36:21;10.32;;;1.58;;
59302;SDS011;45074;52.764;6.896;2022-09-16T17:39:04;8.60;;;1.50;;
59302;SDS011;45074;52.764;6.896;2022-09-16T17:41:32;8.38;;;1.48;;
59302;SDS011;45074;52.764;6.896;2022-09-16T17:44:00;8.18;;;1.88;;
59302;SDS011;45074;52.764;6.896;2022-09-16T17:46:28;7.38;;;1.70;;
59302;SDS011;45074;52.764;6.896;2022-09-16T17:48:58;10.55;;;1.90;;
59302;SDS011;45074;52.764;6.896;2022-09-16T17:51:25;6.47;;;1.50;;
59302;SDS011;45074;52.764;6.896;2022-09-16T17:53:51;6.05;;;1.45;;
59302;SDS011;45074;52.764;6.896;2022-09-16T17:56:17;10.65;;;1.38;;
59302;SDS011;45074;52.764;6.896;2022-09-16T17:58:44;7.65;;;1.30;;
59302;SDS011;45074;52.764;6.896;2022-09-16T18:01:14;9.05;;;1.50;;
59302;SDS011;45074;52.764;6.896;2022-09-16T18:08:34;8.45;;;1.63;;
59302;SDS011;45074;52.764;6.896;2022-09-16T18:11:01;10.77;;;1.75;;
59302;SDS011;45074;52.764;6.896;2022-09-16T18:13:27;7.10;;;1.50;;
59302;SDS011;45074;52.764;6.896;2022-09-16T18:15:53;8.23;;;1.40;;
59302;SDS011;45074;52.764;6.896;2022-09-16T18:18:19;11.40;;;1.80;;
59302;SDS011;45074;52.764;6.896;2022-09-16T18:20:53;8.65;;;1.65;;
59302;SDS011;45074;52.764;6.896;2022-09-16T18:23:20;7.15;;;1.40;;
59302;SDS011;45074;52.764;6.896;2022-09-16T18:25:47;4.78;;;1.30;;
59302;SDS011;45074;52.764;6.896;2022-09-16T18:28:14;9.65;;;1.70;;
59302;SDS011;45074;52.764;6.896;2022-09-16T18:30:40;6.50;;;1.40;;
59302;SDS011;45074;52.764;6.896;2022-09-16T18:33:08;10.85;;;1.75;;
59302;SDS011;45074;52.764;6.896;2022-09-16T18:35:34;8.50;;;1.67;;
59302;SDS011;45074;52.764;6.896;2022-09-16T18:38:03;5.95;;;1.20;;
59302;SDS011;45074;52.764;6.896;2022-09-16T18:40:30;8.30;;;1.20;;
59302;SDS011;45074;52.764;6.896;2022-09-16T18:42:56;9.18;;;1.60;;
59302;SDS011;45074;52.764;6.896;2022-09-16T18:45:22;9.10;;;1.70;;
59302;SDS011;45074;52.764;6.896;2022-09-16T18:47:51;9.50;;;1.58;;
59302;SDS011;45074;52.764;6.896;2022-09-16T18:50:17;6.50;;;1.50;;
59302;SDS011;45074;52.764;6.896;2022-09-16T18:52:45;6.05;;;1.52;;
59302;SDS011;45074;52.764;6.896;2022-09-16T18:55:11;12.10;;;1.67;;
59302;SDS011;45074;52.764;6.896;2022-09-16T18:57:38;7.38;;;1.15;;